sensor_id;sensor_type;location;lat;lon;timestamp;temperature;humidity
20442;DHT22;10380;52.102;20.614;2023-05-16T00:02:09;12.20;99.90
20442;DHT22;10380;52.102;20.614;2023-05-16T00:04:36;12.20;99.90
20442;DHT22;10380;52.102;20.614;2023-05-16T00:07:03;12.10;99.90
20442;DHT22;10380;52.102;20.614;2023-05-16T00:09:36;12.10;99.90
20442;DHT22;10380;52.102;20.614;2023-05-16T00:12:05;12.10;99.90
20442;DHT22;10380;52.102;20.614;2023-05-16T00:14:35;12.10;99.90
20442;DHT22;10380;52.102;20.614;2023-05-16T00:17:03;12.00;99.90
20442;DHT22;10380;52.102;20.614;2023-05-16T00:19:37;12.10;99.90
20442;DHT22;10380;52.102;20.614;2023-05-16T00:22:08;12.10;99.90
20442;DHT22;10380;52.102;20.614;2023-05-16T00:24:37;12.10;99.90
20442;DHT22;10380;52.102;20.614;2023-05-16T00:27:09;12.10;99.90
20442;DHT22;10380;52.102;20.614;2023-05-16T00:29:36;12.10;99.90
20442;DHT22;10380;52.102;20.614;2023-05-16T00:32:04;12.20;99.90
20442;DHT22;10380;52.102;20.614;2023-05-16T00:34:34;12.20;99.90
20442;DHT22;10380;52.102;20.614;2023-05-16T00:37:02;12.20;99.90
20442;DHT22;10380;52.102;20.614;2023-05-16T00:39:29;12.20;99.90
20442;DHT22;10380;52.102;20.614;2023-05-16T00:41:57;12.20;99.90
20442;DHT22;10380;52.102;20.614;2023-05-16T00:44:25;12.20;99.90
20442;DHT22;10380;52.102;20.614;2023-05-16T00:46:53;12.20;99.90
20442;DHT22;10380;52.102;20.614;2023-05-16T00:49:20;12.20;99.90
20442;DHT22;10380;52.102;20.614;2023-05-16T00:51:48;12.20;99.90
20442;DHT22;10380;52.102;20.614;2023-05-16T00:54:15;12.20;99.90
20442;DHT22;10380;52.102;20.614;2023-05-16T00:56:42;12.20;99.90
20442;DHT22;10380;52.102;20.614;2023-05-16T00:59:09;12.20;99.90
20442;DHT22;10380;52.102;20.614;2023-05-16T01:01:38;12.20;99.90
20442;DHT22;10380;52.102;20.614;2023-05-16T01:04:06;12.20;99.90
20442;DHT22;10380;52.102;20.614;2023-05-16T01:06:35;12.10;99.90
20442;DHT22;10380;52.102;20.614;2023-05-16T01:09:02;12.10;99.90
20442;DHT22;10380;52.102;20.614;2023-05-16T01:11:52;12.10;99.90
20442;DHT22;10380;52.102;20.614;2023-05-16T01:23:16;12.10;99.90
20442;DHT22;10380;52.102;20.614;2023-05-16T01:29:05;12.20;99.90
20442;DHT22;10380;52.102;20.614;2023-05-16T01:31:33;12.20;99.90
20442;DHT22;10380;52.102;20.614;2023-05-16T01:34:03;12.10;99.90
20442;DHT22;10380;52.102;20.614;2023-05-16T01:36:36;12.10;99.90
20442;DHT22;10380;52.102;20.614;2023-05-16T01:39:17;12.10;99.90
20442;DHT22;10380;52.102;20.614;2023-05-16T01:42:06;12.10;99.90
20442;DHT22;10380;52.102;20.614;2023-05-16T01:47:21;11.90;99.90
20442;DHT22;10380;52.102;20.614;2023-05-16T01:50:02;11.80;99.90
20442;DHT22;10380;52.102;20.614;2023-05-16T01:52:59;11.80;99.90
20442;DHT22;10380;52.102;20.614;2023-05-16T01:55:45;11.70;99.90
20442;DHT22;10380;52.102;20.614;2023-05-16T01:58:17;11.60;99.90
20442;DHT22;10380;52.102;20.614;2023-05-16T02:00:45;11.60;99.90
20442;DHT22;10380;52.102;20.614;2023-05-16T02:03:18;11.60;99.90
20442;DHT22;10380;52.102;20.614;2023-05-16T02:05:45;11.60;99.90
20442;DHT22;10380;52.102;20.614;2023-05-16T02:08:12;11.60;99.90
20442;DHT22;10380;52.102;20.614;2023-05-16T02:10:40;11.50;99.90
20442;DHT22;10380;52.102;20.614;2023-05-16T02:13:07;11.50;99.90
20442;DHT22;10380;52.102;20.614;2023-05-16T02:15:34;11.50;99.90
20442;DHT22;10380;52.102;20.614;2023-05-16T02:18:01;11.40;99.90
20442;DHT22;10380;52.102;20.614;2023-05-16T02:20:29;11.40;99.90
20442;DHT22;10380;52.102;20.614;2023-05-16T02:22:56;11.40;99.90
20442;DHT22;10380;52.102;20.614;2023-05-16T02:25:23;11.30;99.90
20442;DHT22;10380;52.102;20.614;2023-05-16T02:27:51;11.30;99.90
20442;DHT22;10380;52.102;20.614;2023-05-16T02:30:18;11.20;99.90
20442;DHT22;10380;52.102;20.614;2023-05-16T02:32:45;11.20;99.90
20442;DHT22;10380;52.102;20.614;2023-05-16T02:35:12;11.20;99.90
20442;DHT22;10380;52.102;20.614;2023-05-16T02:37:40;11.20;99.90
20442;DHT22;10380;52.102;20.614;2023-05-16T02:40:07;11.20;99.90
20442;DHT22;10380;52.102;20.614;2023-05-16T02:42:35;11.10;99.90
20442;DHT22;10380;52.102;20.614;2023-05-16T02:45:02;11.10;99.90
20442;DHT22;10380;52.102;20.614;2023-05-16T02:47:31;11.10;99.90
20442;DHT22;10380;52.102;20.614;2023-05-16T02:49:58;11.00;99.90
20442;DHT22;10380;52.102;20.614;2023-05-16T02:52:25;11.00;99.90
20442;DHT22;10380;52.102;20.614;2023-05-16T02:54:52;11.00;99.90
20442;DHT22;10380;52.102;20.614;2023-05-16T02:57:24;11.00;99.90
20442;DHT22;10380;52.102;20.614;2023-05-16T02:59:52;10.90;99.90
20442;DHT22;10380;52.102;20.614;2023-05-16T03:02:19;10.90;99.90
20442;DHT22;10380;52.102;20.614;2023-05-16T03:04:46;10.90;99.90
20442;DHT22;10380;52.102;20.614;2023-05-16T03:07:13;11.00;99.90
20442;DHT22;10380;52.102;20.614;2023-05-16T03:09:40;11.00;99.90
20442;DHT22;10380;52.102;20.614;2023-05-16T03:12:07;10.90;99.90
20442;DHT22;10380;52.102;20.614;2023-05-16T03:14:37;11.00;99.90
20442;DHT22;10380;52.102;20.614;2023-05-16T03:17:07;11.00;99.90
20442;DHT22;10380;52.102;20.614;2023-05-16T03:19:34;11.00;99.90
20442;DHT22;10380;52.102;20.614;2023-05-16T03:22:02;11.00;99.90
20442;DHT22;10380;52.102;20.614;2023-05-16T03:24:31;11.00;99.90
20442;DHT22;10380;52.102;20.614;2023-05-16T03:26:58;11.00;99.90
20442;DHT22;10380;52.102;20.614;2023-05-16T03:29:25;11.00;99.90
20442;DHT22;10380;52.102;20.614;2023-05-16T03:31:53;11.00;99.90
20442;DHT22;10380;52.102;20.614;2023-05-16T03:34:21;11.10;99.90
20442;DHT22;10380;52.102;20.614;2023-05-16T03:36:51;11.10;99.90
20442;DHT22;10380;52.102;20.614;2023-05-16T03:39:18;11.10;99.90
20442;DHT22;10380;52.102;20.614;2023-05-16T03:41:46;11.10;99.90
20442;DHT22;10380;52.102;20.614;2023-05-16T03:44:13;11.20;99.90
20442;DHT22;10380;52.102;20.614;2023-05-16T03:46:40;11.20;99.90
20442;DHT22;10380;52.102;20.614;2023-05-16T03:49:07;11.20;99.90
20442;DHT22;10380;52.102;20.614;2023-05-16T03:51:34;11.20;99.90
20442;DHT22;10380;52.102;20.614;2023-05-16T03:54:04;11.30;99.90
20442;DHT22;10380;52.102;20.614;2023-05-16T03:56:32;11.30;99.90
20442;DHT22;10380;52.102;20.614;2023-05-16T03:58:58;11.40;99.90
20442;DHT22;10380;52.102;20.614;2023-05-16T04:01:25;11.40;99.90
20442;DHT22;10380;52.102;20.614;2023-05-16T04:03:56;11.50;99.90
20442;DHT22;10380;52.102;20.614;2023-05-16T04:06:23;11.50;99.90
20442;DHT22;10380;52.102;20.614;2023-05-16T04:08:50;11.50;99.90
20442;DHT22;10380;52.102;20.614;2023-05-16T04:11:18;11.60;99.90
20442;DHT22;10380;52.102;20.614;2023-05-16T04:13:45;11.70;99.90
20442;DHT22;10380;52.102;20.614;2023-05-16T04:16:12;11.70;99.90
20442;DHT22;10380;52.102;20.614;2023-05-16T04:18:40;11.80;99.90
20442;DHT22;10380;52.102;20.614;2023-05-16T04:21:07;11.80;99.90
20442;DHT22;10380;52.102;20.614;2023-05-16T04:23:36;11.90;99.90
20442;DHT22;10380;52.102;20.614;2023-05-16T04:26:03;11.90;99.90
20442;DHT22;10380;52.102;20.614;2023-05-16T04:28:30;12.00;99.90
20442;DHT22;10380;52.102;20.614;2023-05-16T04:30:58;12.00;99.90
20442;DHT22;10380;52.102;20.614;2023-05-16T04:33:25;12.10;99.90
20442;DHT22;10380;52.102;20.614;2023-05-16T04:35:52;12.10;99.90
20442;DHT22;10380;52.102;20.614;2023-05-16T04:38:20;12.20;99.90
20442;DHT22;10380;52.102;20.614;2023-05-16T04:40:48;12.30;99.90
20442;DHT22;10380;52.102;20.614;2023-05-16T04:43:20;12.30;99.90
20442;DHT22;10380;52.102;20.614;2023-05-16T04:45:47;12.40;99.90
20442;DHT22;10380;52.102;20.614;2023-05-16T04:48:16;12.50;99.90
20442;DHT22;10380;52.102;20.614;2023-05-16T04:50:44;12.50;99.90
20442;DHT22;10380;52.102;20.614;2023-05-16T04:53:11;12.60;99.90
20442;DHT22;10380;52.102;20.614;2023-05-16T04:55:38;12.70;99.90
20442;DHT22;10380;52.102;20.614;2023-05-16T04:58:06;12.70;99.90
20442;DHT22;10380;52.102;20.614;2023-05-16T05:00:33;12.70;99.90
20442;DHT22;10380;52.102;20.614;2023-05-16T05:03:02;12.80;99.90
20442;DHT22;10380;52.102;20.614;2023-05-16T05:05:30;12.90;99.90
20442;DHT22;10380;52.102;20.614;2023-05-16T05:07:58;12.90;99.90
20442;DHT22;10380;52.102;20.614;2023-05-16T05:10:26;12.90;99.90
20442;DHT22;10380;52.102;20.614;2023-05-16T05:12:55;13.00;99.90
20442;DHT22;10380;52.102;20.614;2023-05-16T05:15:22;13.10;99.90
20442;DHT22;10380;52.102;20.614;2023-05-16T05:17:49;13.10;99.90
20442;DHT22;10380;52.102;20.614;2023-05-16T05:20:17;13.20;99.90
20442;DHT22;10380;52.102;20.614;2023-05-16T05:22:44;13.30;99.90
20442;DHT22;10380;52.102;20.614;2023-05-16T05:25:12;13.40;99.90
20442;DHT22;10380;52.102;20.614;2023-05-16T05:27:39;13.50;99.90
20442;DHT22;10380;52.102;20.614;2023-05-16T05:30:07;13.60;99.90
20442;DHT22;10380;52.102;20.614;2023-05-16T05:32:34;13.60;99.90
20442;DHT22;10380;52.102;20.614;2023-05-16T05:35:05;13.70;99.90
20442;DHT22;10380;52.102;20.614;2023-05-16T05:37:32;13.80;99.90
20442;DHT22;10380;52.102;20.614;2023-05-16T05:40:00;13.90;99.90
20442;DHT22;10380;52.102;20.614;2023-05-16T05:42:26;14.00;99.90
20442;DHT22;10380;52.102;20.614;2023-05-16T05:44:53;14.00;99.90
20442;DHT22;10380;52.102;20.614;2023-05-16T05:47:21;14.10;99.90
20442;DHT22;10380;52.102;20.614;2023-05-16T05:49:48;14.10;99.90
20442;DHT22;10380;52.102;20.614;2023-05-16T05:52:16;14.20;99.90
20442;DHT22;10380;52.102;20.614;2023-05-16T05:54:43;14.20;99.90
20442;DHT22;10380;52.102;20.614;2023-05-16T05:57:10;14.30;99.90
20442;DHT22;10380;52.102;20.614;2023-05-16T05:59:37;14.30;99.90
20442;DHT22;10380;52.102;20.614;2023-05-16T06:02:04;14.30;99.90
20442;DHT22;10380;52.102;20.614;2023-05-16T06:04:31;14.20;99.90
20442;DHT22;10380;52.102;20.614;2023-05-16T06:06:58;14.20;99.90
20442;DHT22;10380;52.102;20.614;2023-05-16T06:09:25;14.30;99.90
20442;DHT22;10380;52.102;20.614;2023-05-16T06:11:52;14.30;99.90
20442;DHT22;10380;52.102;20.614;2023-05-16T06:14:19;14.30;99.90
20442;DHT22;10380;52.102;20.614;2023-05-16T06:16:46;14.30;99.90
20442;DHT22;10380;52.102;20.614;2023-05-16T06:19:12;14.20;99.90
20442;DHT22;10380;52.102;20.614;2023-05-16T06:21:42;14.20;99.90
20442;DHT22;10380;52.102;20.614;2023-05-16T06:24:09;14.10;99.90
20442;DHT22;10380;52.102;20.614;2023-05-16T06:26:37;14.20;99.90
20442;DHT22;10380;52.102;20.614;2023-05-16T06:29:04;14.20;99.90
20442;DHT22;10380;52.102;20.614;2023-05-16T06:31:31;14.20;99.90
20442;DHT22;10380;52.102;20.614;2023-05-16T06:33:58;14.20;99.90
20442;DHT22;10380;52.102;20.614;2023-05-16T06:36:25;14.10;99.90
20442;DHT22;10380;52.102;20.614;2023-05-16T06:38:52;14.10;99.90
20442;DHT22;10380;52.102;20.614;2023-05-16T06:41:19;14.10;99.90
20442;DHT22;10380;52.102;20.614;2023-05-16T06:43:47;14.10;99.90
20442;DHT22;10380;52.102;20.614;2023-05-16T06:46:13;14.00;99.90
20442;DHT22;10380;52.102;20.614;2023-05-16T06:48:40;13.90;99.90
20442;DHT22;10380;52.102;20.614;2023-05-16T06:51:07;13.90;99.90
20442;DHT22;10380;52.102;20.614;2023-05-16T06:53:35;13.90;99.90
20442;DHT22;10380;52.102;20.614;2023-05-16T06:56:02;14.00;99.90
20442;DHT22;10380;52.102;20.614;2023-05-16T06:58:29;13.90;99.90
20442;DHT22;10380;52.102;20.614;2023-05-16T07:00:57;14.00;99.90
20442;DHT22;10380;52.102;20.614;2023-05-16T07:03:24;14.00;99.90
20442;DHT22;10380;52.102;20.614;2023-05-16T07:05:52;14.00;99.90
20442;DHT22;10380;52.102;20.614;2023-05-16T07:08:19;14.10;99.90
20442;DHT22;10380;52.102;20.614;2023-05-16T07:10:47;14.20;99.90
20442;DHT22;10380;52.102;20.614;2023-05-16T07:13:13;14.20;99.90
20442;DHT22;10380;52.102;20.614;2023-05-16T07:15:40;14.20;99.90
20442;DHT22;10380;52.102;20.614;2023-05-16T07:18:07;14.30;99.90
20442;DHT22;10380;52.102;20.614;2023-05-16T07:20:35;14.30;99.90
20442;DHT22;10380;52.102;20.614;2023-05-16T07:23:02;14.40;99.90
20442;DHT22;10380;52.102;20.614;2023-05-16T07:25:29;14.40;99.90
20442;DHT22;10380;52.102;20.614;2023-05-16T07:27:56;14.30;99.90
20442;DHT22;10380;52.102;20.614;2023-05-16T07:30:23;14.30;99.90
20442;DHT22;10380;52.102;20.614;2023-05-16T07:32:50;14.30;99.90
20442;DHT22;10380;52.102;20.614;2023-05-16T07:35:17;14.30;99.90
20442;DHT22;10380;52.102;20.614;2023-05-16T07:37:44;14.40;99.90
20442;DHT22;10380;52.102;20.614;2023-05-16T07:40:12;14.50;99.90
20442;DHT22;10380;52.102;20.614;2023-05-16T07:42:39;14.70;99.90
20442;DHT22;10380;52.102;20.614;2023-05-16T07:45:06;14.80;99.90
20442;DHT22;10380;52.102;20.614;2023-05-16T07:47:33;14.90;99.90
20442;DHT22;10380;52.102;20.614;2023-05-16T07:50:01;15.10;99.90
20442;DHT22;10380;52.102;20.614;2023-05-16T07:52:28;15.20;99.90
20442;DHT22;10380;52.102;20.614;2023-05-16T07:54:55;15.40;99.90
20442;DHT22;10380;52.102;20.614;2023-05-16T07:57:22;15.60;99.90
20442;DHT22;10380;52.102;20.614;2023-05-16T07:59:52;15.80;99.90
20442;DHT22;10380;52.102;20.614;2023-05-16T08:02:19;16.00;99.90
20442;DHT22;10380;52.102;20.614;2023-05-16T08:04:46;16.00;99.90
20442;DHT22;10380;52.102;20.614;2023-05-16T08:07:14;16.10;99.90
20442;DHT22;10380;52.102;20.614;2023-05-16T08:09:41;16.10;99.90
20442;DHT22;10380;52.102;20.614;2023-05-16T08:12:08;16.10;99.90
20442;DHT22;10380;52.102;20.614;2023-05-16T08:14:35;16.00;99.90
20442;DHT22;10380;52.102;20.614;2023-05-16T08:17:02;16.00;99.90
20442;DHT22;10380;52.102;20.614;2023-05-16T08:19:30;16.00;99.90
20442;DHT22;10380;52.102;20.614;2023-05-16T08:21:58;16.10;99.90
20442;DHT22;10380;52.102;20.614;2023-05-16T08:24:25;16.20;99.90
20442;DHT22;10380;52.102;20.614;2023-05-16T08:26:52;16.30;99.90
20442;DHT22;10380;52.102;20.614;2023-05-16T08:29:19;16.40;99.90
20442;DHT22;10380;52.102;20.614;2023-05-16T08:31:46;16.50;99.90
20442;DHT22;10380;52.102;20.614;2023-05-16T08:34:14;16.40;99.90
20442;DHT22;10380;52.102;20.614;2023-05-16T08:36:41;16.40;99.90
20442;DHT22;10380;52.102;20.614;2023-05-16T08:39:08;16.30;99.90
20442;DHT22;10380;52.102;20.614;2023-05-16T08:41:37;16.20;99.90
20442;DHT22;10380;52.102;20.614;2023-05-16T08:44:05;16.10;99.90
20442;DHT22;10380;52.102;20.614;2023-05-16T08:46:33;16.00;99.90
20442;DHT22;10380;52.102;20.614;2023-05-16T08:49:01;16.10;99.90
20442;DHT22;10380;52.102;20.614;2023-05-16T08:51:34;16.20;99.90
20442;DHT22;10380;52.102;20.614;2023-05-16T08:54:05;16.20;99.90
20442;DHT22;10380;52.102;20.614;2023-05-16T08:56:33;16.20;99.90
20442;DHT22;10380;52.102;20.614;2023-05-16T08:59:02;16.30;99.90
20442;DHT22;10380;52.102;20.614;2023-05-16T09:01:30;16.40;99.90
20442;DHT22;10380;52.102;20.614;2023-05-16T09:04:00;16.50;99.90
20442;DHT22;10380;52.102;20.614;2023-05-16T09:06:29;16.60;99.90
20442;DHT22;10380;52.102;20.614;2023-05-16T09:08:56;16.70;99.90
20442;DHT22;10380;52.102;20.614;2023-05-16T09:11:23;16.70;99.90
20442;DHT22;10380;52.102;20.614;2023-05-16T09:13:50;16.60;99.90
20442;DHT22;10380;52.102;20.614;2023-05-16T09:16:20;16.60;99.90
20442;DHT22;10380;52.102;20.614;2023-05-16T09:18:55;16.70;99.90
20442;DHT22;10380;52.102;20.614;2023-05-16T09:21:31;16.70;99.90
20442;DHT22;10380;52.102;20.614;2023-05-16T09:24:05;16.90;99.90
20442;DHT22;10380;52.102;20.614;2023-05-16T09:26:35;17.10;99.90
20442;DHT22;10380;52.102;20.614;2023-05-16T09:29:09;17.30;99.90
20442;DHT22;10380;52.102;20.614;2023-05-16T09:31:37;17.50;99.90
20442;DHT22;10380;52.102;20.614;2023-05-16T09:34:08;17.50;99.90
20442;DHT22;10380;52.102;20.614;2023-05-16T09:36:37;17.50;99.90
20442;DHT22;10380;52.102;20.614;2023-05-16T09:39:07;17.40;99.90
20442;DHT22;10380;52.102;20.614;2023-05-16T09:41:34;17.30;99.90
20442;DHT22;10380;52.102;20.614;2023-05-16T09:44:05;17.30;99.90
20442;DHT22;10380;52.102;20.614;2023-05-16T09:46:36;17.30;99.90
20442;DHT22;10380;52.102;20.614;2023-05-16T09:49:04;17.40;99.90
20442;DHT22;10380;52.102;20.614;2023-05-16T09:51:30;17.40;99.90
20442;DHT22;10380;52.102;20.614;2023-05-16T09:53:58;17.40;99.90
20442;DHT22;10380;52.102;20.614;2023-05-16T09:56:25;17.50;99.90
20442;DHT22;10380;52.102;20.614;2023-05-16T09:58:52;17.50;99.90
20442;DHT22;10380;52.102;20.614;2023-05-16T10:01:19;17.60;99.90
20442;DHT22;10380;52.102;20.614;2023-05-16T10:03:46;17.60;99.90
20442;DHT22;10380;52.102;20.614;2023-05-16T10:06:14;17.70;99.90
20442;DHT22;10380;52.102;20.614;2023-05-16T10:08:42;17.70;99.90
20442;DHT22;10380;52.102;20.614;2023-05-16T10:11:10;17.70;99.90
20442;DHT22;10380;52.102;20.614;2023-05-16T10:13:38;17.70;99.90
20442;DHT22;10380;52.102;20.614;2023-05-16T10:16:11;17.70;99.90
20442;DHT22;10380;52.102;20.614;2023-05-16T10:18:40;17.60;99.90
20442;DHT22;10380;52.102;20.614;2023-05-16T10:21:12;17.70;99.90
20442;DHT22;10380;52.102;20.614;2023-05-16T10:23:47;17.80;99.90
20442;DHT22;10380;52.102;20.614;2023-05-16T10:26:16;18.00;99.90
20442;DHT22;10380;52.102;20.614;2023-05-16T10:28:43;18.20;99.90
20442;DHT22;10380;52.102;20.614;2023-05-16T10:31:11;18.40;99.90
20442;DHT22;10380;52.102;20.614;2023-05-16T10:33:39;18.60;99.90
20442;DHT22;10380;52.102;20.614;2023-05-16T10:36:08;18.70;99.90
20442;DHT22;10380;52.102;20.614;2023-05-16T10:38:36;18.80;99.90
20442;DHT22;10380;52.102;20.614;2023-05-16T10:41:04;18.80;99.90
20442;DHT22;10380;52.102;20.614;2023-05-16T10:43:32;18.90;99.90
20442;DHT22;10380;52.102;20.614;2023-05-16T10:46:04;18.90;99.90
20442;DHT22;10380;52.102;20.614;2023-05-16T10:48:34;19.10;99.90
20442;DHT22;10380;52.102;20.614;2023-05-16T10:51:03;19.20;99.90
20442;DHT22;10380;52.102;20.614;2023-05-16T10:53:33;19.40;99.90
20442;DHT22;10380;52.102;20.614;2023-05-16T11:01:17;19.30;99.90
20442;DHT22;10380;52.102;20.614;2023-05-16T11:04:06;19.30;99.90
20442;DHT22;10380;52.102;20.614;2023-05-16T11:17:00;19.20;99.90
20442;DHT22;10380;52.102;20.614;2023-05-16T11:19:39;19.20;99.90
20442;DHT22;10380;52.102;20.614;2023-05-16T11:25:05;19.10;99.90
20442;DHT22;10380;52.102;20.614;2023-05-16T11:27:36;19.20;99.90
20442;DHT22;10380;52.102;20.614;2023-05-16T11:30:11;19.20;99.90
20442;DHT22;10380;52.102;20.614;2023-05-16T11:32:40;19.30;99.90
20442;DHT22;10380;52.102;20.614;2023-05-16T11:35:13;19.40;99.90
20442;DHT22;10380;52.102;20.614;2023-05-16T11:37:41;19.40;99.90
20442;DHT22;10380;52.102;20.614;2023-05-16T11:40:10;19.60;99.90
20442;DHT22;10380;52.102;20.614;2023-05-16T11:42:43;19.60;99.90
20442;DHT22;10380;52.102;20.614;2023-05-16T11:45:14;19.70;99.90
20442;DHT22;10380;52.102;20.614;2023-05-16T11:47:42;19.80;99.90
20442;DHT22;10380;52.102;20.614;2023-05-16T11:50:17;19.80;99.90
20442;DHT22;10380;52.102;20.614;2023-05-16T11:52:50;19.90;99.90
20442;DHT22;10380;52.102;20.614;2023-05-16T11:55:23;20.20;99.90
20442;DHT22;10380;52.102;20.614;2023-05-16T11:58:08;20.70;99.90
20442;DHT22;10380;52.102;20.614;2023-05-16T12:00:35;21.70;99.90
20442;DHT22;10380;52.102;20.614;2023-05-16T12:03:03;22.20;99.90
20442;DHT22;10380;52.102;20.614;2023-05-16T12:05:32;22.40;99.90
20442;DHT22;10380;52.102;20.614;2023-05-16T12:08:01;22.50;99.90
20442;DHT22;10380;52.102;20.614;2023-05-16T12:10:31;22.30;99.90
20442;DHT22;10380;52.102;20.614;2023-05-16T12:13:01;22.00;99.90
20442;DHT22;10380;52.102;20.614;2023-05-16T12:15:29;21.60;99.90
20442;DHT22;10380;52.102;20.614;2023-05-16T12:17:57;21.20;99.90
20442;DHT22;10380;52.102;20.614;2023-05-16T12:20:24;20.70;99.90
20442;DHT22;10380;52.102;20.614;2023-05-16T12:22:51;20.40;99.90
20442;DHT22;10380;52.102;20.614;2023-05-16T12:25:22;20.10;99.90
20442;DHT22;10380;52.102;20.614;2023-05-16T12:27:52;20.00;99.90
20442;DHT22;10380;52.102;20.614;2023-05-16T12:30:23;20.10;99.90
20442;DHT22;10380;52.102;20.614;2023-05-16T12:32:57;20.60;99.90
20442;DHT22;10380;52.102;20.614;2023-05-16T12:35:32;20.80;99.90
20442;DHT22;10380;52.102;20.614;2023-05-16T12:38:02;21.30;99.90
20442;DHT22;10380;52.102;20.614;2023-05-16T12:40:29;21.50;99.90
20442;DHT22;10380;52.102;20.614;2023-05-16T12:42:57;21.40;99.90
20442;DHT22;10380;52.102;20.614;2023-05-16T12:45:27;21.50;99.90
20442;DHT22;10380;52.102;20.614;2023-05-16T12:47:55;21.70;99.90
20442;DHT22;10380;52.102;20.614;2023-05-16T12:50:22;22.10;99.90
20442;DHT22;10380;52.102;20.614;2023-05-16T12:52:58;22.50;99.90
20442;DHT22;10380;52.102;20.614;2023-05-16T12:55:25;22.70;99.90
20442;DHT22;10380;52.102;20.614;2023-05-16T12:57:54;22.80;99.90
20442;DHT22;10380;52.102;20.614;2023-05-16T13:00:22;22.50;99.90
20442;DHT22;10380;52.102;20.614;2023-05-16T13:02:49;22.10;99.90
20442;DHT22;10380;52.102;20.614;2023-05-16T13:05:18;21.90;99.90
20442;DHT22;10380;52.102;20.614;2023-05-16T13:07:46;21.70;99.90
20442;DHT22;10380;52.102;20.614;2023-05-16T13:10:13;21.50;99.90
20442;DHT22;10380;52.102;20.614;2023-05-16T13:12:40;21.40;99.90
20442;DHT22;10380;52.102;20.614;2023-05-16T13:15:09;21.60;99.90
20442;DHT22;10380;52.102;20.614;2023-05-16T13:17:38;21.80;99.90
20442;DHT22;10380;52.102;20.614;2023-05-16T13:20:06;21.90;99.90
20442;DHT22;10380;52.102;20.614;2023-05-16T13:22:53;22.10;99.90
20442;DHT22;10380;52.102;20.614;2023-05-16T13:25:21;22.50;99.90
20442;DHT22;10380;52.102;20.614;2023-05-16T13:27:48;22.60;99.90
20442;DHT22;10380;52.102;20.614;2023-05-16T13:30:15;22.80;99.90
20442;DHT22;10380;52.102;20.614;2023-05-16T13:32:42;23.10;99.90
20442;DHT22;10380;52.102;20.614;2023-05-16T13:35:09;22.90;99.90
20442;DHT22;10380;52.102;20.614;2023-05-16T13:37:36;22.80;99.90
20442;DHT22;10380;52.102;20.614;2023-05-16T13:40:04;22.80;99.90
20442;DHT22;10380;52.102;20.614;2023-05-16T13:42:31;23.10;99.90
20442;DHT22;10380;52.102;20.614;2023-05-16T13:44:58;23.30;99.90
20442;DHT22;10380;52.102;20.614;2023-05-16T13:47:25;23.40;99.90
20442;DHT22;10380;52.102;20.614;2023-05-16T13:49:52;23.30;99.90
20442;DHT22;10380;52.102;20.614;2023-05-16T13:52:19;23.00;99.90
20442;DHT22;10380;52.102;20.614;2023-05-16T13:54:46;22.50;99.90
20442;DHT22;10380;52.102;20.614;2023-05-16T13:57:13;22.00;99.90
20442;DHT22;10380;52.102;20.614;2023-05-16T13:59:40;21.70;99.90
20442;DHT22;10380;52.102;20.614;2023-05-16T14:02:11;21.60;99.90
20442;DHT22;10380;52.102;20.614;2023-05-16T14:04:38;21.60;99.90
20442;DHT22;10380;52.102;20.614;2023-05-16T14:07:06;21.70;99.90
20442;DHT22;10380;52.102;20.614;2023-05-16T14:09:34;21.80;99.90
20442;DHT22;10380;52.102;20.614;2023-05-16T14:12:05;21.90;99.90
20442;DHT22;10380;52.102;20.614;2023-05-16T14:14:37;21.90;99.90
20442;DHT22;10380;52.102;20.614;2023-05-16T14:17:04;21.70;99.90
20442;DHT22;10380;52.102;20.614;2023-05-16T14:19:31;21.50;99.90
20442;DHT22;10380;52.102;20.614;2023-05-16T14:21:58;21.50;99.90
20442;DHT22;10380;52.102;20.614;2023-05-16T14:24:25;21.60;99.90
20442;DHT22;10380;52.102;20.614;2023-05-16T14:26:52;21.60;99.90
20442;DHT22;10380;52.102;20.614;2023-05-16T14:29:24;21.70;99.90
20442;DHT22;10380;52.102;20.614;2023-05-16T14:31:51;21.60;99.90
20442;DHT22;10380;52.102;20.614;2023-05-16T14:34:19;21.60;99.90
20442;DHT22;10380;52.102;20.614;2023-05-16T14:36:48;21.50;99.90
20442;DHT22;10380;52.102;20.614;2023-05-16T14:39:15;21.40;99.90
20442;DHT22;10380;52.102;20.614;2023-05-16T14:41:43;21.40;99.90
20442;DHT22;10380;52.102;20.614;2023-05-16T14:44:10;21.50;99.90
20442;DHT22;10380;52.102;20.614;2023-05-16T14:46:39;21.50;99.90
20442;DHT22;10380;52.102;20.614;2023-05-16T14:49:06;21.40;99.90
20442;DHT22;10380;52.102;20.614;2023-05-16T14:51:34;21.40;99.90
20442;DHT22;10380;52.102;20.614;2023-05-16T14:54:02;21.20;99.90
20442;DHT22;10380;52.102;20.614;2023-05-16T14:56:29;21.10;99.90
20442;DHT22;10380;52.102;20.614;2023-05-16T14:58:57;21.00;99.90
20442;DHT22;10380;52.102;20.614;2023-05-16T15:01:25;21.00;99.90
20442;DHT22;10380;52.102;20.614;2023-05-16T15:03:53;20.90;99.90
20442;DHT22;10380;52.102;20.614;2023-05-16T15:06:23;20.80;99.90
20442;DHT22;10380;52.102;20.614;2023-05-16T15:08:50;20.90;99.90
20442;DHT22;10380;52.102;20.614;2023-05-16T15:11:17;21.10;99.90
20442;DHT22;10380;52.102;20.614;2023-05-16T15:13:44;21.20;99.90
20442;DHT22;10380;52.102;20.614;2023-05-16T15:16:11;21.40;99.90
20442;DHT22;10380;52.102;20.614;2023-05-16T15:18:40;21.60;99.90
20442;DHT22;10380;52.102;20.614;2023-05-16T15:21:07;21.80;99.90
20442;DHT22;10380;52.102;20.614;2023-05-16T15:23:35;21.90;99.90
20442;DHT22;10380;52.102;20.614;2023-05-16T15:26:03;21.90;99.90
20442;DHT22;10380;52.102;20.614;2023-05-16T15:28:33;21.90;99.90
20442;DHT22;10380;52.102;20.614;2023-05-16T15:30:59;22.00;99.90
20442;DHT22;10380;52.102;20.614;2023-05-16T15:33:26;22.20;99.90
20442;DHT22;10380;52.102;20.614;2023-05-16T15:35:56;22.50;99.90
20442;DHT22;10380;52.102;20.614;2023-05-16T15:38:23;22.70;99.90
20442;DHT22;10380;52.102;20.614;2023-05-16T15:40:50;22.90;99.90
20442;DHT22;10380;52.102;20.614;2023-05-16T15:43:38;23.10;99.90
20442;DHT22;10380;52.102;20.614;2023-05-16T15:46:05;23.30;99.90
20442;DHT22;10380;52.102;20.614;2023-05-16T15:48:33;23.10;99.90
20442;DHT22;10380;52.102;20.614;2023-05-16T15:51:00;23.10;99.90
20442;DHT22;10380;52.102;20.614;2023-05-16T15:53:27;23.10;99.90
20442;DHT22;10380;52.102;20.614;2023-05-16T15:55:54;23.10;99.90
20442;DHT22;10380;52.102;20.614;2023-05-16T15:58:22;23.00;99.90